Monteview, ID

11:08 AM MDT on July 29, 2014 (GMT -0600)
Fanning (KIDA) Elev 4741 ft | 43.51 °N, 112.07 °W | Change Station

Current weather conditions updated 15 minutes ago

Overcast
Overcast
67 °F
Feels Like 67 °F
N
0
Wind Variable Wind from North

Today is forecast to be Cooler than yesterday. Slight chance of a thunderstorm.

Today
High -- | Low -- °F
--% Chance of Precip.
Yesterday
High -- | Low -- °F
Precip. -- in
6:15 AM 8:57 PM
Waxing Crescent, 7% visible
Pressure 30.14 in
Visibility 10.0 miles
Clouds Scattered Clouds 8000 ft
Overcast 10000 ft
Dew Point 56 °F
Humidity 68%
Rainfall 0.01 in
Snow Depth Not available.
UV 2 out of 12
Pollen 5.60 out of 12
PM2.5 Good
Flu Activity Not available.
METAR KIDA 291653Z 00000KT 10SM SCT080 OVC100 19/13 A3026 RMK AO2 RAB1554E51 SLP206 SHRA ALQDS P0000 T01940133

More Conditions Fewer Conditions

Pressure 30.14 in
Visibility 10.0 miles
Clouds Scattered Clouds 8000 ft
Overcast 10000 ft
Dew Point 56 °F
Humidity 68%
Rainfall 0.01 in
Snow Depth Not available.
UV 2 out of 12
Pollen 5.60 out of 12
PM2.5 Good
Flu Activity Not available.
METAR KIDA 291653Z 00000KT 10SM SCT080 OVC100 19/13 A3026 RMK AO2 RAB1554E51 SLP206 SHRA ALQDS P0000 T01940133

More Conditions Fewer Conditions

10-Day Weather Forecast

Almanac

Astronomy

Jul. 29, 2014 Rise Set
Actual Time 6:15 AM MDT 8:57 PM MDT
Civil Twilight 5:42 AM MDT 9:30 PM MDT
Nautical Twilight 5:00 AM MDT 10:11 PM MDT
Astronomical Twilight 4:12 AM MDT 10:59 PM MDT
Moon 9:02 AM MDT 10:03 PM MDT
Length of Visible Light 15h 47m
Length of Day
14h 41m
Tomorrow will be 2m 14s shorter.
Waxing Crescent, 7% of the Moon is Illuminated
Today
Waxing Crescent
Aug 3
First Quarter
Aug 10
Full
Aug 17
Last Quarter
Aug 25
New

Today's Extremes

State Highs State Lows

Community

WunderPhotos

Upload Photos

1,738,786 photos uploaded!

Nearby

Air Quality

  Air Quality AQ Index Pollutant
Yesterday Good
PM2.5
Current Good
PM2.5
Tuesday Good
PM2.5

Snow Depth

Station Depth Elevation
Hilts Creek 0 in 8000 ft
Moonshine 1 in 7440 ft
Sheep Mountain 0 in 6570 ft
Island Park 0 in 6290 ft
Bear Canyon 0 in 7900 ft

Earthquake Activity

City Distance Mag. Time & Date
No recent earthquake activity has been reported nearby.
Minimum magnitude displayed is 2.5.

Coastal Water Temperatures

Place Temperature
No Stations Reporting

Nearby Weather Stations

There are no personal weather stations in this area.